UAE73 OMDB-LFPG

Flight info

Callsign UAE73
Flight time 6h 29m
Altitude 34000
Route RIDAP M557 TUMAK L602 GADSI M860 SEPTU DCT VUSEB M860 NINVA UM860 ODALI UL852 EKSUK/N0480F360 UL852 NEGEM T746 ARGES DCT MOPUG DCT EBORO DCT OKORA DCT SUNIS DCT ERKIR L608 KPT L856 RAVED Y112 HOC/N0467F370 DCT MOROK/N0461F350 DCT PENDU DCT JAVVU DCT GIVRI/N0464F360 DCT TINIL
Aircraft B77W/H-SDE1E2E3FGHIJ2J3J4J5M1RWXY/LB1D1

Departure

Time 2026-05-03 20:15
Airport Dubai International Airport (OMDB)

Arrival

Time 2026-05-04 02:44
Airport Charles de Gaulle International Airport (LFPG)
Time Latitude Longitude Altitude Speed Heading
2026-05-03 20:15 25.30044 55.28206 2761 ft 215 kts 301°
2026-05-03 20:15 25.30781 55.26763 3324 ft 216 kts 301°
2026-05-03 20:15 25.31529 55.25298 3758 ft 225 kts 301°
2026-05-03 20:15 25.32316 55.23758 4136 ft 237 kts 301°
2026-05-03 20:16 25.33146 55.22134 4525 ft 250 kts 301°
2026-05-03 20:16 25.34033 55.20401 4840 ft 268 kts 301°
2026-05-03 20:16 25.34984 55.18541 5100 ft 288 kts 301°
2026-05-03 20:16 25.35990 55.16573 5379 ft 308 kts 301°
2026-05-03 20:17 25.37075 55.14452 5671 ft 325 kts 300°
2026-05-03 20:17 25.38182 55.12247 6251 ft 329 kts 296°
2026-05-03 20:17 25.38628 55.09822 7283 ft 322 kts 268°
2026-05-03 20:17 25.37971 55.07482 8424 ft 323 kts 246°
2026-05-03 20:18 25.36744 55.05316 8888 ft 344 kts 239°
2026-05-03 20:18 25.35410 55.03088 9304 ft 350 kts 248°
2026-05-03 20:18 25.34612 55.00547 9944 ft 351 kts 261°
2026-05-03 20:18 25.34191 54.97952 10639 ft 354 kts 265°
2026-05-03 20:19 25.33863 54.95241 11379 ft 356 kts 266°
2026-05-03 20:19 25.33796 54.92508 11930 ft 358 kts 277°
2026-05-03 20:19 25.34370 54.89841 12465 ft 360 kts 296°
2026-05-03 20:19 25.35614 54.87491 13148 ft 357 kts 301°
2026-05-03 20:20 25.36659 54.84960 13661 ft 368 kts 291°
2026-05-03 20:20 25.37435 54.82233 14278 ft 374 kts 287°
2026-05-03 20:20 25.38152 54.79456 14905 ft 377 kts 287°
2026-05-03 20:20 25.38899 54.76670 15050 ft 379 kts 288°
2026-05-03 20:21 25.39680 54.73888 15079 ft 378 kts 288°
2026-05-03 20:21 25.40472 54.71122 15076 ft 377 kts 288°
2026-05-03 20:21 25.41280 54.68337 15475 ft 382 kts 288°
2026-05-03 20:21 25.42094 54.65533 16210 ft 384 kts 288°
2026-05-03 20:22 25.42908 54.62717 16940 ft 386 kts 288°
2026-05-03 20:22 25.43721 54.59913 17579 ft 390 kts 288°
2026-05-03 20:22 25.44565 54.57041 18178 ft 395 kts 288°
2026-05-03 20:22 25.45420 54.54141 18727 ft 398 kts 288°
2026-05-03 20:23 25.46279 54.51225 19344 ft 400 kts 288°
2026-05-03 20:23 25.47142 54.48293 19945 ft 401 kts 288°
2026-05-03 20:23 25.48007 54.45346 20514 ft 404 kts 288°
2026-05-03 20:23 25.48878 54.42376 21086 ft 407 kts 288°
2026-05-03 20:24 25.49742 54.39426 21663 ft 410 kts 288°
2026-05-03 20:24 25.50621 54.36420 22238 ft 412 kts 288°
2026-05-03 20:24 25.51505 54.33397 22825 ft 414 kts 289°
2026-05-03 20:24 25.52392 54.30359 23369 ft 416 kts 289°
2026-05-03 20:25 25.53286 54.27299 23827 ft 419 kts 289°
2026-05-03 20:25 25.54183 54.24223 24298 ft 420 kts 288°
2026-05-03 20:25 25.55090 54.21138 24744 ft 422 kts 289°
2026-05-03 20:25 25.56008 54.18042 25206 ft 424 kts 289°
2026-05-03 20:26 25.56928 54.14936 25692 ft 425 kts 289°
2026-05-03 20:26 25.57837 54.11864 26160 ft 426 kts 289°
2026-05-03 20:26 25.58759 54.08740 26614 ft 428 kts 289°
2026-05-03 20:26 25.59680 54.05605 27050 ft 429 kts 288°
2026-05-03 20:27 25.60586 54.02444 27476 ft 431 kts 288°
2026-05-03 20:27 25.61466 53.99335 27874 ft 433 kts 288°
2026-05-03 20:27 25.62365 53.96145 28240 ft 435 kts 288°
2026-05-03 20:27 25.63271 53.92933 28643 ft 437 kts 288°
2026-05-03 20:28 25.64179 53.89719 29057 ft 438 kts 288°
2026-05-03 20:28 25.65092 53.86492 29441 ft 439 kts 288°
2026-05-03 20:28 25.66006 53.83257 29797 ft 441 kts 288°
2026-05-03 20:28 25.66912 53.80052 30088 ft 442 kts 288°
2026-05-03 20:29 25.67832 53.76794 30350 ft 444 kts 288°
2026-05-03 20:29 25.68754 53.73523 30610 ft 445 kts 288°
2026-05-03 20:29 25.69677 53.70246 30841 ft 446 kts 288°
2026-05-03 20:29 25.70601 53.66958 31065 ft 447 kts 288°
2026-05-03 20:30 25.71525 53.63666 31376 ft 446 kts 288°
2026-05-03 20:30 25.72443 53.60392 31770 ft 443 kts 288°
2026-05-03 20:30 25.73341 53.57188 32161 ft 440 kts 288°
2026-05-03 20:30 25.74245 53.53959 32518 ft 438 kts 288°
2026-05-03 20:31 25.75146 53.50739 32829 ft 437 kts 288°
2026-05-03 20:31 25.76049 53.47532 33196 ft 434 kts 288°
2026-05-03 20:31 25.76949 53.44349 33593 ft 431 kts 288°
2026-05-03 20:31 25.77846 53.41181 33780 ft 432 kts 288°
2026-05-03 20:32 25.78747 53.37993 33821 ft 434 kts 288°
2026-05-03 20:32 25.80542 53.31626 33849 ft 430 kts 288°
2026-05-03 20:33 25.82304 53.25358 33864 ft 427 kts 287°
2026-05-03 20:33 25.84096 53.19075 33863 ft 427 kts 289°
2026-05-03 20:34 25.86444 53.13012 33871 ft 428 kts 294°
2026-05-03 20:34 25.88901 53.07027 33867 ft 430 kts 293°
2026-05-03 20:35 25.91366 53.00971 33864 ft 431 kts 293°
2026-05-03 20:35 25.93807 52.94945 33862 ft 432 kts 293°
2026-05-03 20:36 25.96275 52.88841 33867 ft 433 kts 293°
2026-05-03 20:36 25.98746 52.82724 33866 ft 434 kts 293°
2026-05-03 20:37 26.01197 52.76649 33865 ft 434 kts 293°
2026-05-03 20:37 26.03768 52.70576 33872 ft 434 kts 295°
2026-05-03 20:38 26.06519 52.64605 33867 ft 433 kts 295°
2026-05-03 20:38 26.09234 52.58631 33868 ft 432 kts 295°
2026-05-03 20:39 26.11902 52.52692 33867 ft 432 kts 295°
2026-05-03 20:39 26.14605 52.46725 33868 ft 432 kts 295°
2026-05-03 20:40 26.17312 52.40756 33893 ft 432 kts 295°
2026-05-03 20:40 26.20018 52.34773 33876 ft 433 kts 295°
2026-05-03 20:41 26.22692 52.28825 33874 ft 432 kts 295°
2026-05-03 20:41 26.25304 52.22792 33871 ft 432 kts 294°
2026-05-03 20:42 26.27904 52.16753 33877 ft 432 kts 294°
2026-05-03 20:42 26.30512 52.10717 33876 ft 432 kts 294°
2026-05-03 20:43 26.33113 52.04679 33881 ft 432 kts 294°
2026-05-03 20:43 26.35654 51.98729 33874 ft 432 kts 294°
2026-05-03 20:44 26.38129 51.92624 33874 ft 431 kts 289°
2026-05-03 20:44 26.40191 51.86343 33882 ft 431 kts 289°
2026-05-03 20:45 26.42288 51.80073 33873 ft 432 kts 290°
2026-05-03 20:45 26.44397 51.73851 33896 ft 432 kts 289°
2026-05-03 20:46 26.46515 51.67575 33886 ft 432 kts 289°
2026-05-03 20:46 26.48644 51.61298 33877 ft 432 kts 289°
2026-05-03 20:47 26.50733 51.55008 33870 ft 432 kts 289°
2026-05-03 20:47 26.52802 51.48754 33879 ft 432 kts 289°
2026-05-03 20:48 26.54885 51.42459 33883 ft 432 kts 289°
2026-05-03 20:48 26.56968 51.36160 33899 ft 432 kts 289°
2026-05-03 20:49 26.59049 51.29860 33878 ft 432 kts 289°
2026-05-03 20:49 26.61130 51.23563 33880 ft 432 kts 289°
2026-05-03 20:50 26.63197 51.17308 33881 ft 432 kts 289°
2026-05-03 20:50 26.65274 51.11010 33881 ft 432 kts 289°
2026-05-03 20:51 26.67347 51.04712 33874 ft 432 kts 289°
2026-05-03 20:51 26.69388 50.98477 33886 ft 431 kts 289°
2026-05-03 20:52 26.71399 50.92207 33878 ft 431 kts 288°
2026-05-03 20:52 26.73418 50.85897 33865 ft 431 kts 288°
2026-05-03 20:53 26.75437 50.79589 33878 ft 430 kts 288°
2026-05-03 20:53 26.77453 50.73285 33876 ft 430 kts 288°
2026-05-03 20:54 26.79766 50.67160 33888 ft 432 kts 296°
2026-05-03 20:54 26.84727 50.58700 33878 ft 437 kts 305°
2026-05-03 20:55 26.88616 50.53464 33878 ft 437 kts 306°
2026-05-03 20:55 26.92512 50.48222 33878 ft 439 kts 308°
2026-05-03 20:56 26.96668 50.43265 33891 ft 440 kts 309°
2026-05-03 20:56 27.00876 50.38301 33877 ft 440 kts 309°
2026-05-03 20:57 27.05066 50.33308 33877 ft 440 kts 308°
2026-05-03 20:57 27.09233 50.28291 33874 ft 439 kts 308°
2026-05-03 20:58 27.13395 50.23267 33887 ft 439 kts 308°
2026-05-03 20:58 27.17803 50.18542 33879 ft 445 kts 316°
2026-05-03 20:59 27.22805 50.14413 33882 ft 447 kts 318°
2026-05-03 20:59 27.27821 50.10292 33882 ft 446 kts 317°
2026-05-03 21:00 27.31130 50.07549 33879 ft 446 kts 317°
2026-05-03 21:00 27.37798 50.01979 33878 ft 446 kts 316°
2026-05-03 21:01 27.42601 49.97767 33881 ft 445 kts 316°
2026-05-03 21:01 27.47470 49.93453 33878 ft 445 kts 316°
2026-05-03 21:02 27.52350 49.89150 33892 ft 446 kts 316°
2026-05-03 21:02 27.57240 49.84844 33885 ft 446 kts 316°
2026-05-03 21:03 27.62096 49.80565 33882 ft 446 kts 316°
2026-05-03 21:03 27.66985 49.76252 33895 ft 446 kts 316°
2026-05-03 21:04 27.71864 49.71941 33876 ft 445 kts 315°
2026-05-03 21:04 27.76730 49.67638 33877 ft 445 kts 315°
2026-05-03 21:05 27.81592 49.63317 33891 ft 445 kts 315°
2026-05-03 21:05 27.86413 49.59003 33889 ft 445 kts 315°
2026-05-03 21:06 27.91260 49.54661 33885 ft 444 kts 315°
2026-05-03 21:06 27.96105 49.50320 33887 ft 444 kts 315°
2026-05-03 21:07 28.00943 49.45979 33893 ft 444 kts 315°
2026-05-03 21:07 28.05742 49.41650 33899 ft 444 kts 314°
2026-05-03 21:08 28.10551 49.37265 33889 ft 444 kts 314°
2026-05-03 21:08 28.15359 49.32873 33884 ft 444 kts 314°
2026-05-03 21:09 28.20165 49.28485 33898 ft 443 kts 314°
2026-05-03 21:09 28.24966 49.24097 33886 ft 443 kts 314°
2026-05-03 21:10 28.29726 49.19728 33889 ft 443 kts 314°
2026-05-03 21:10 28.34504 49.15312 33888 ft 443 kts 314°
2026-05-03 21:11 28.39288 49.10906 33894 ft 444 kts 315°
2026-05-03 21:11 28.44394 49.06881 33881 ft 448 kts 319°
2026-05-03 21:12 28.49580 49.02955 33886 ft 448 kts 319°
2026-05-03 21:12 28.54659 48.99086 33899 ft 448 kts 318°
2026-05-03 21:13 28.59832 48.95122 33894 ft 448 kts 318°
2026-05-03 21:13 28.65006 48.91149 33889 ft 448 kts 318°
2026-05-03 21:14 28.70175 48.87175 33914 ft 448 kts 318°
2026-05-03 21:14 28.75308 48.83225 33884 ft 448 kts 318°
2026-05-03 21:15 28.80461 48.79256 33880 ft 447 kts 318°
2026-05-03 21:15 28.85611 48.75302 33879 ft 446 kts 318°
2026-05-03 21:16 28.90757 48.71356 33889 ft 445 kts 318°
2026-05-03 21:16 28.95860 48.67436 33885 ft 445 kts 318°
2026-05-03 21:17 29.00150 48.64135 33875 ft 444 kts 318°
2026-05-03 21:17 29.06102 48.59548 33890 ft 444 kts 318°
2026-05-03 21:18 29.11233 48.55588 33886 ft 445 kts 318°
2026-05-03 21:18 29.16374 48.51616 33883 ft 446 kts 318°
2026-05-03 21:19 29.21486 48.47663 33905 ft 447 kts 317°
2026-05-03 21:19 29.26641 48.43671 33887 ft 447 kts 317°
2026-05-03 21:20 29.31788 48.39680 33881 ft 447 kts 317°
2026-05-03 21:20 29.36898 48.35713 33880 ft 446 kts 317°
2026-05-03 21:21 29.42034 48.31721 33883 ft 446 kts 317°
2026-05-03 21:21 29.47347 48.27977 33881 ft 449 kts 321°
2026-05-03 21:22 29.52784 48.24438 33873 ft 449 kts 322°
2026-05-03 21:22 29.58219 48.20894 33877 ft 449 kts 321°
2026-05-03 21:23 29.63600 48.17358 33879 ft 448 kts 321°
2026-05-03 21:23 29.69009 48.13790 33874 ft 448 kts 321°
2026-05-03 21:24 29.74418 48.10217 33883 ft 449 kts 321°
2026-05-03 21:24 29.79829 48.06639 33877 ft 448 kts 321°
2026-05-03 21:25 29.85203 48.03083 33874 ft 448 kts 321°
2026-05-03 21:25 29.90558 47.99533 33884 ft 448 kts 321°
2026-05-03 21:26 29.95961 47.95947 33871 ft 448 kts 321°
2026-05-03 21:26 30.01103 47.92029 33877 ft 438 kts 313°
2026-05-03 21:27 30.05581 47.87353 33890 ft 430 kts 306°
2026-05-03 21:27 30.09477 47.82215 33866 ft 428 kts 304°
2026-05-03 21:28 30.13352 47.76985 33863 ft 429 kts 304°
2026-05-03 21:28 30.17239 47.71761 33864 ft 429 kts 304°
2026-05-03 21:29 30.21117 47.66569 33869 ft 430 kts 304°
2026-05-03 21:29 30.25024 47.61339 33865 ft 430 kts 304°
2026-05-03 21:30 30.28931 47.56101 33868 ft 430 kts 304°
2026-05-03 21:30 30.32835 47.50860 33888 ft 430 kts 304°
2026-05-03 21:31 30.36740 47.45611 33875 ft 430 kts 303°
2026-05-03 21:31 30.40619 47.40390 33871 ft 430 kts 303°
2026-05-03 21:32 30.44520 47.35131 33863 ft 430 kts 303°
2026-05-03 21:32 30.48419 47.29868 33874 ft 430 kts 303°
2026-05-03 21:33 30.52318 47.24598 33870 ft 431 kts 303°
2026-05-03 21:33 30.56262 47.19414 33874 ft 434 kts 307°
2026-05-03 21:34 30.60858 47.14759 33877 ft 442 kts 313°
2026-05-03 21:34 30.65671 47.10314 33858 ft 442 kts 313°
2026-05-03 21:35 30.70476 47.05851 33852 ft 442 kts 313°
2026-05-03 21:35 30.75276 47.01368 33874 ft 442 kts 313°
2026-05-03 21:36 30.79995 46.96947 33865 ft 443 kts 313°
2026-05-03 21:36 30.84798 46.92442 33850 ft 444 kts 313°
2026-05-03 21:37 30.89602 46.87930 33853 ft 444 kts 313°
2026-05-03 21:37 30.94410 46.83407 33859 ft 445 kts 313°
2026-05-03 21:38 30.99197 46.78900 33859 ft 445 kts 313°
2026-05-03 21:38 31.04012 46.74360 33861 ft 446 kts 313°
2026-05-03 21:39 31.08834 46.69807 33861 ft 446 kts 313°
2026-05-03 21:39 31.13664 46.65241 33849 ft 447 kts 313°
2026-05-03 21:40 31.18456 46.60705 33853 ft 447 kts 313°
2026-05-03 21:40 31.23282 46.56129 33860 ft 447 kts 313°
2026-05-03 21:41 31.28115 46.51540 33854 ft 448 kts 312°
2026-05-03 21:41 31.32132 46.47722 33848 ft 448 kts 312°
2026-05-03 21:42 31.37758 46.42367 33848 ft 449 kts 313°
2026-05-03 21:42 31.42604 46.37748 33841 ft 450 kts 313°
2026-05-03 21:43 31.46634 46.33902 33856 ft 450 kts 312°
2026-05-03 21:43 31.51484 46.29267 33855 ft 450 kts 313°
2026-05-03 21:44 31.57128 46.23865 33846 ft 451 kts 313°
2026-05-03 21:44 31.61988 46.19207 33842 ft 451 kts 312°
2026-05-03 21:45 31.66851 46.14539 33853 ft 452 kts 312°
2026-05-03 21:45 31.70897 46.10650 33849 ft 452 kts 312°
2026-05-03 21:46 31.76551 46.05197 33863 ft 452 kts 312°
2026-05-03 21:46 31.80582 46.01209 33856 ft 452 kts 311°
2026-05-03 21:47 31.85302 45.96500 33855 ft 452 kts 311°
2026-05-03 21:47 31.90107 45.91709 33846 ft 453 kts 311°
2026-05-03 21:48 31.94916 45.86917 33850 ft 453 kts 311°
2026-05-03 21:48 32.00503 45.81345 33847 ft 453 kts 311°
2026-05-03 21:49 32.04533 45.77322 33849 ft 453 kts 311°
2026-05-03 21:49 32.09315 45.72539 33844 ft 454 kts 311°
2026-05-03 21:50 32.14127 45.67721 33845 ft 454 kts 311°
2026-05-03 21:50 32.18940 45.62893 33858 ft 454 kts 311°
2026-05-03 21:51 32.23758 45.58054 33844 ft 455 kts 311°
2026-05-03 21:51 32.28550 45.53234 33841 ft 455 kts 311°
2026-05-03 21:52 32.33374 45.48374 33851 ft 456 kts 311°
2026-05-03 21:52 32.38208 45.43498 33845 ft 457 kts 311°
2026-05-03 21:53 32.43047 45.38609 33846 ft 458 kts 311°
2026-05-03 21:53 32.47857 45.33742 33848 ft 458 kts 311°
2026-05-03 21:54 32.52709 45.28828 33841 ft 459 kts 311°
2026-05-03 21:54 32.57789 45.24174 33848 ft 466 kts 317°
2026-05-03 21:55 32.63216 45.19919 33852 ft 468 kts 318°
2026-05-03 21:55 32.68653 45.15663 33854 ft 468 kts 318°
2026-05-03 21:56 32.74039 45.11406 33866 ft 469 kts 318°
2026-05-03 21:56 32.79463 45.07095 33851 ft 469 kts 318°
2026-05-03 21:57 32.84887 45.02775 33855 ft 469 kts 318°
2026-05-03 21:57 32.90266 44.98487 33869 ft 470 kts 317°
2026-05-03 21:58 32.95660 44.94181 33857 ft 470 kts 317°
2026-05-03 21:58 33.01083 44.89846 33851 ft 470 kts 317°
2026-05-03 21:59 33.06509 44.85501 33860 ft 470 kts 317°
2026-05-03 21:59 33.11928 44.81155 33860 ft 469 kts 317°
2026-05-03 22:00 33.17350 44.76809 33866 ft 470 kts 319°
2026-05-03 22:00 33.23218 44.73228 33866 ft 484 kts 329°
2026-05-03 22:01 33.29715 44.70787 33870 ft 494 kts 337°
2026-05-03 22:01 33.36412 44.68867 33863 ft 496 kts 338°
2026-05-03 22:02 33.43121 44.66965 33853 ft 496 kts 338°
2026-05-03 22:02 33.49822 44.65017 33848 ft 496 kts 338°
2026-05-03 22:03 33.56473 44.63052 33852 ft 496 kts 337°
2026-05-03 22:03 33.63171 44.61063 33857 ft 496 kts 337°
2026-05-03 22:04 33.69876 44.59071 33848 ft 497 kts 337°
2026-05-03 22:04 33.76584 44.57078 33846 ft 497 kts 337°
2026-05-03 22:05 33.83245 44.55095 33866 ft 497 kts 337°
2026-05-03 22:05 33.89956 44.53094 33853 ft 497 kts 337°
2026-05-03 22:06 33.96670 44.51089 33854 ft 497 kts 337°
2026-05-03 22:06 34.03361 44.49088 33851 ft 496 kts 337°
2026-05-03 22:07 34.10065 44.47079 33847 ft 496 kts 337°
2026-05-03 22:07 34.16720 44.45081 33853 ft 496 kts 337°
2026-05-03 22:08 34.23419 44.43067 33855 ft 496 kts 337°
2026-05-03 22:08 34.30122 44.41048 33864 ft 497 kts 336°
2026-05-03 22:09 34.36837 44.39023 33858 ft 497 kts 337°
2026-05-03 22:10 34.46870 44.35991 33875 ft 497 kts 337°
2026-05-03 22:10 34.53589 44.33956 33859 ft 498 kts 337°
2026-05-03 22:11 34.60307 44.31919 33854 ft 498 kts 337°
2026-05-03 22:11 34.67034 44.29875 33857 ft 498 kts 336°
2026-05-03 22:12 34.73758 44.27828 33859 ft 498 kts 336°
2026-05-03 22:12 34.80434 44.25793 33859 ft 498 kts 336°
2026-05-03 22:13 34.87152 44.23742 33859 ft 498 kts 336°
2026-05-03 22:13 34.93871 44.21685 33871 ft 499 kts 336°
2026-05-03 22:14 35.00555 44.19636 33872 ft 499 kts 336°
2026-05-03 22:14 35.07297 44.17567 33868 ft 500 kts 336°
2026-05-03 22:15 35.14053 44.15490 33866 ft 501 kts 337°
2026-05-03 22:15 35.20814 44.13407 33870 ft 501 kts 337°
2026-05-03 22:16 35.27536 44.11334 33867 ft 501 kts 337°
2026-05-03 22:16 35.34302 44.09244 33880 ft 502 kts 337°
2026-05-03 22:17 35.41073 44.07147 33881 ft 502 kts 337°
2026-05-03 22:17 35.47849 44.05046 33884 ft 502 kts 337°
2026-05-03 22:18 35.54623 44.02942 33879 ft 501 kts 337°
2026-05-03 22:18 35.61335 44.00854 33892 ft 501 kts 337°
2026-05-03 22:19 35.68029 43.98766 33888 ft 501 kts 337°
2026-05-03 22:19 35.74784 43.96657 33929 ft 500 kts 337°
2026-05-03 22:20 35.81495 43.94556 33909 ft 501 kts 337°
2026-05-03 22:20 35.88253 43.92438 33924 ft 502 kts 337°
2026-05-03 22:21 35.95020 43.90315 33931 ft 502 kts 337°
2026-05-03 22:21 36.01799 43.88181 33920 ft 504 kts 337°
2026-05-03 22:22 36.08609 43.86035 33918 ft 506 kts 337°
2026-05-03 22:22 36.15374 43.83902 33899 ft 504 kts 337°
2026-05-03 22:23 36.22154 43.81759 33919 ft 501 kts 338°
2026-05-03 22:23 36.28847 43.79471 33913 ft 493 kts 332°
2026-05-03 22:24 36.35135 43.76275 33959 ft 488 kts 328°
2026-05-03 22:24 36.41353 43.72961 33937 ft 490 kts 329°
2026-05-03 22:25 36.47642 43.69659 33948 ft 492 kts 329°
2026-05-03 22:25 36.53961 43.66373 33963 ft 493 kts 329°
2026-05-03 22:26 36.60297 43.63076 33967 ft 494 kts 329°
2026-05-03 22:26 36.66602 43.59785 33979 ft 495 kts 329°
2026-05-03 22:27 36.72961 43.56460 33977 ft 496 kts 329°
2026-05-03 22:27 36.79286 43.53060 33992 ft 494 kts 328°
2026-05-03 22:28 36.85555 43.49534 34024 ft 494 kts 328°
2026-05-03 22:28 36.91780 43.46025 34014 ft 494 kts 328°
2026-05-03 22:29 36.98053 43.42506 34057 ft 495 kts 328°
2026-05-03 22:29 37.04336 43.38986 34027 ft 495 kts 328°
2026-05-03 22:30 37.10625 43.35455 34050 ft 495 kts 328°
2026-05-03 22:30 37.16917 43.31913 34063 ft 496 kts 329°
2026-05-03 22:31 37.23173 43.28386 34068 ft 497 kts 329°
2026-05-03 22:31 37.29479 43.24827 34104 ft 496 kts 328°
2026-05-03 22:31 37.32464 43.22751 34068 ft 485 kts 317°
2026-05-03 22:32 37.34995 43.20028 34062 ft 474 kts 307°
2026-05-03 22:32 37.38699 43.13410 34068 ft 456 kts 291°
2026-05-03 22:33 37.41599 43.06348 34075 ft 460 kts 291°
2026-05-03 22:33 37.44545 42.99282 34075 ft 463 kts 292°
2026-05-03 22:34 37.47573 42.92117 34076 ft 464 kts 292°
2026-05-03 22:34 37.50620 42.84919 34086 ft 468 kts 292°
2026-05-03 22:35 37.53665 42.77710 34060 ft 469 kts 292°
2026-05-03 22:35 37.56719 42.70457 34060 ft 469 kts 292°
2026-05-03 22:36 37.59771 42.63199 34067 ft 468 kts 293°
2026-05-03 22:36 37.62834 42.55943 34063 ft 468 kts 293°
2026-05-03 22:37 37.65875 42.48733 34056 ft 469 kts 293°
2026-05-03 22:37 37.68929 42.41466 34056 ft 468 kts 293°
2026-05-03 22:38 37.71976 42.34197 34042 ft 468 kts 293°
2026-05-03 22:38 37.75021 42.26923 34023 ft 469 kts 293°
2026-05-03 22:39 37.78065 42.19631 34030 ft 470 kts 293°
2026-05-03 22:39 37.81091 42.12361 34016 ft 471 kts 293°
2026-05-03 22:40 37.84138 42.05024 34018 ft 471 kts 293°
2026-05-03 22:40 37.87148 41.97764 34004 ft 471 kts 293°
2026-05-03 22:41 37.90235 41.90448 33975 ft 473 kts 297°
2026-05-03 22:41 37.94095 41.83720 33984 ft 479 kts 307°
2026-05-03 22:42 37.98533 41.77416 34002 ft 479 kts 307°
2026-05-03 22:42 38.02981 41.71111 33983 ft 481 kts 307°
2026-05-03 22:43 38.07423 41.64741 33986 ft 482 kts 307°
2026-05-03 22:43 38.11827 41.58382 33978 ft 483 kts 307°
2026-05-03 22:44 38.16261 41.51961 33963 ft 484 kts 307°
2026-05-03 22:44 38.20694 41.45532 33969 ft 484 kts 307°
2026-05-03 22:45 38.25134 41.39081 33984 ft 485 kts 307°
2026-05-03 22:45 38.29576 41.32615 33971 ft 485 kts 307°
2026-05-03 22:46 38.33984 41.26187 33968 ft 485 kts 307°
2026-05-03 22:46 38.38415 41.19708 33966 ft 485 kts 307°
2026-05-03 22:47 38.42846 41.13220 33974 ft 485 kts 307°
2026-05-03 22:47 38.47274 41.06711 33976 ft 485 kts 306°
2026-05-03 22:48 38.51616 41.00111 33975 ft 485 kts 305°
2026-05-03 22:48 38.55845 40.93612 33975 ft 485 kts 305°
2026-05-03 22:49 38.60161 40.87004 34001 ft 483 kts 306°
2026-05-03 22:49 38.64468 40.80418 33984 ft 483 kts 306°
2026-05-03 22:50 38.68779 40.73901 34002 ft 483 kts 306°
2026-05-03 22:50 38.73132 40.67331 34006 ft 484 kts 306°
2026-05-03 22:51 38.77486 40.60734 33998 ft 485 kts 306°
2026-05-03 22:51 38.81838 40.54118 33988 ft 485 kts 306°
2026-05-03 22:52 38.86185 40.47496 33995 ft 485 kts 306°
2026-05-03 22:52 38.90502 40.40905 33989 ft 486 kts 306°
2026-05-03 22:53 38.94842 40.34264 33993 ft 486 kts 306°
2026-05-03 22:53 38.99190 40.27598 33992 ft 488 kts 305°
2026-05-03 22:54 39.03547 40.20905 33996 ft 490 kts 305°
2026-05-03 22:54 39.07898 40.14204 33977 ft 492 kts 305°
2026-05-03 22:55 39.12288 40.07432 33976 ft 494 kts 305°
2026-05-03 22:55 39.16686 40.00633 33978 ft 493 kts 305°
2026-05-03 22:56 39.21018 39.93925 33965 ft 492 kts 305°
2026-05-03 22:56 39.25362 39.87187 33969 ft 492 kts 304°
2026-05-03 22:57 39.29730 39.80399 33950 ft 491 kts 304°
2026-05-03 22:57 39.34078 39.73624 33971 ft 490 kts 304°
2026-05-03 22:58 39.38429 39.66829 33936 ft 492 kts 304°
2026-05-03 22:58 39.42791 39.60002 33956 ft 492 kts 304°
2026-05-03 22:59 39.47127 39.53204 33953 ft 493 kts 304°
2026-05-03 22:59 39.51493 39.46344 33941 ft 493 kts 304°
2026-05-03 23:00 39.55801 39.39446 33944 ft 492 kts 303°
2026-05-03 23:00 39.60087 39.32509 33968 ft 494 kts 303°
2026-05-03 23:01 39.64347 39.25616 33922 ft 491 kts 303°
2026-05-03 23:01 39.68600 39.18732 33911 ft 487 kts 302°
2026-05-03 23:02 39.72829 39.11872 33919 ft 485 kts 303°
2026-05-03 23:02 39.77082 39.05066 33902 ft 485 kts 304°
2026-05-03 23:03 39.81302 38.98361 33911 ft 484 kts 304°
2026-05-03 23:03 39.85540 38.91600 33904 ft 487 kts 303°
2026-05-03 23:04 39.89806 38.84767 33904 ft 486 kts 303°
2026-05-03 23:04 39.94074 38.77907 33901 ft 489 kts 303°
2026-05-03 23:05 39.98356 38.71013 33910 ft 489 kts 303°
2026-05-03 23:05 40.02603 38.64162 33901 ft 489 kts 303°
2026-05-03 23:06 40.06877 38.57254 33902 ft 489 kts 303°
2026-05-03 23:06 40.11144 38.50338 33898 ft 490 kts 303°
2026-05-03 23:07 40.15415 38.43400 33890 ft 490 kts 303°
2026-05-03 23:07 40.19655 38.36498 33887 ft 490 kts 303°
2026-05-03 23:08 40.23916 38.29547 33901 ft 490 kts 303°
2026-05-03 23:08 40.28179 38.22577 33892 ft 490 kts 303°
2026-05-03 23:09 40.32200 38.15424 33889 ft 484 kts 295°
2026-05-03 23:09 40.35136 38.07601 33891 ft 474 kts 285°
2026-05-03 23:10 40.37467 37.99670 33894 ft 473 kts 285°
2026-05-03 23:10 40.39837 37.91617 33909 ft 474 kts 285°
2026-05-03 23:11 40.42242 37.83558 33915 ft 475 kts 285°
2026-05-03 23:11 40.44657 37.75478 33927 ft 476 kts 285°
2026-05-03 23:12 40.47051 37.67437 33945 ft 476 kts 285°
2026-05-03 23:12 40.49459 37.59321 33954 ft 478 kts 285°
2026-05-03 23:13 40.51866 37.51185 33950 ft 478 kts 285°
2026-05-03 23:13 40.54273 37.43032 33942 ft 478 kts 285°
2026-05-03 23:14 40.56650 37.34952 33957 ft 477 kts 285°
2026-05-03 23:14 40.59032 37.26828 33967 ft 476 kts 285°
2026-05-03 23:15 40.61406 37.18701 33982 ft 476 kts 285°
2026-05-03 23:15 40.63776 37.10569 33989 ft 476 kts 284°
2026-05-03 23:16 40.66124 37.02482 33997 ft 476 kts 284°
2026-05-03 23:16 40.68462 36.94406 34003 ft 476 kts 284°
2026-05-03 23:17 40.70816 36.86254 34011 ft 476 kts 284°
2026-05-03 23:17 40.73166 36.78084 34016 ft 477 kts 284°
2026-05-03 23:18 40.75502 36.69945 34007 ft 477 kts 284°
2026-05-03 23:18 40.77845 36.61767 34021 ft 477 kts 284°
2026-05-03 23:19 40.80188 36.53595 34007 ft 475 kts 284°
2026-05-03 23:19 40.82521 36.45442 34024 ft 474 kts 284°
2026-05-03 23:20 40.84838 36.37309 34020 ft 473 kts 283°
2026-05-03 23:20 40.87135 36.29216 34014 ft 474 kts 283°
2026-05-03 23:21 40.89445 36.21051 34006 ft 475 kts 283°
2026-05-03 23:21 40.91755 36.12861 34007 ft 477 kts 283°
2026-05-03 23:22 40.95221 36.00445 34001 ft 481 kts 282°
2026-05-03 23:22 40.97457 35.92250 33985 ft 483 kts 282°
2026-05-03 23:23 40.99742 35.83900 33978 ft 482 kts 283°
2026-05-03 23:23 41.02053 35.75578 33975 ft 481 kts 283°
2026-05-03 23:24 41.04360 35.67277 33974 ft 479 kts 282°
2026-05-03 23:24 41.06632 35.59050 33980 ft 478 kts 282°
2026-05-03 23:25 41.08908 35.50770 34004 ft 478 kts 282°
2026-05-03 23:25 41.11179 35.42479 33983 ft 479 kts 282°
2026-05-03 23:26 41.13445 35.34180 33984 ft 479 kts 282°
2026-05-03 23:26 41.15691 35.25927 33991 ft 479 kts 282°
2026-05-03 23:27 41.17952 35.17593 33995 ft 480 kts 282°
2026-05-03 23:27 41.20209 35.09246 33990 ft 481 kts 282°
2026-05-03 23:28 41.22463 35.00882 33982 ft 481 kts 282°
2026-05-03 23:28 41.24672 34.92661 34016 ft 481 kts 282°
2026-05-03 23:29 41.26910 34.84299 34009 ft 480 kts 282°
2026-05-03 23:29 41.29141 34.75947 33989 ft 479 kts 282°
2026-05-03 23:30 41.31359 34.67609 33991 ft 478 kts 282°
2026-05-03 23:30 41.33552 34.59336 33992 ft 477 kts 282°
2026-05-03 23:31 41.35750 34.51018 33986 ft 476 kts 282°
2026-05-03 23:31 41.37937 34.42713 33985 ft 475 kts 282°
2026-05-03 23:32 41.40114 34.34416 34039 ft 474 kts 282°
2026-05-03 23:32 41.42251 34.26167 33986 ft 474 kts 281°
2026-05-03 23:33 41.44384 34.17859 33991 ft 474 kts 281°
2026-05-03 23:33 41.46516 34.09554 33982 ft 474 kts 281°
2026-05-03 23:34 41.48656 34.01249 34011 ft 474 kts 281°
2026-05-03 23:34 41.50757 33.93068 33996 ft 475 kts 281°
2026-05-03 23:35 41.52894 33.84715 34002 ft 476 kts 281°
2026-05-03 23:35 41.55028 33.76344 33998 ft 476 kts 281°
2026-05-03 23:36 41.57152 33.67976 33995 ft 476 kts 281°
2026-05-03 23:36 41.59258 33.59657 33991 ft 476 kts 281°
2026-05-03 23:37 41.61341 33.51264 33998 ft 476 kts 280°
2026-05-03 23:37 41.63449 33.42863 34018 ft 477 kts 281°
2026-05-03 23:38 41.65574 33.34461 34005 ft 477 kts 281°
2026-05-03 23:38 41.67688 33.26046 33989 ft 478 kts 281°
2026-05-03 23:39 41.69778 33.17681 33993 ft 477 kts 281°
2026-05-03 23:39 41.71872 33.09267 34007 ft 476 kts 281°
2026-05-03 23:40 41.73953 33.00875 34002 ft 473 kts 280°
2026-05-03 23:40 41.75960 32.92619 33982 ft 470 kts 280°
2026-05-03 23:41 41.77956 32.84367 34005 ft 468 kts 280°
2026-05-03 23:41 41.79964 32.76051 33999 ft 470 kts 280°
2026-05-03 23:42 41.82005 32.67715 33993 ft 471 kts 280°
2026-05-03 23:42 41.84060 32.59369 34011 ft 471 kts 280°
2026-05-03 23:43 41.86092 32.51065 34036 ft 473 kts 280°
2026-05-03 23:43 41.88124 32.42654 34013 ft 474 kts 279°
2026-05-03 23:44 41.90094 32.34193 34002 ft 476 kts 279°
2026-05-03 23:44 41.92120 32.25724 34008 ft 477 kts 279°
2026-05-03 23:45 41.94143 32.17246 34011 ft 476 kts 279°
2026-05-03 23:45 41.96136 32.08833 34017 ft 476 kts 279°
2026-05-03 23:46 41.98134 32.00370 34021 ft 475 kts 279°
2026-05-03 23:46 42.00101 31.92014 34019 ft 474 kts 279°
2026-05-03 23:47 42.02084 31.83548 34029 ft 475 kts 279°
2026-05-03 23:47 42.04052 31.75116 34031 ft 476 kts 279°
2026-05-03 23:48 42.06032 31.66598 34031 ft 477 kts 279°
2026-05-03 23:48 42.08009 31.58068 34065 ft 478 kts 279°
2026-05-03 23:49 42.09985 31.49500 34042 ft 480 kts 280°
2026-05-03 23:49 42.11948 31.40971 34035 ft 481 kts 279°
2026-05-03 23:50 42.13602 31.33767 34043 ft 481 kts 280°
2026-05-03 23:50 42.15897 31.23754 34057 ft 481 kts 280°
2026-05-03 23:51 42.17869 31.15118 34047 ft 482 kts 280°
2026-05-03 23:51 42.19822 31.06525 34045 ft 483 kts 280°
2026-05-03 23:52 42.21758 30.97975 34052 ft 483 kts 280°
2026-05-03 23:52 42.23714 30.89294 34056 ft 484 kts 281°
2026-05-03 23:53 42.25671 30.80582 34067 ft 486 kts 281°
2026-05-03 23:53 42.27612 30.71908 34070 ft 486 kts 281°
2026-05-03 23:54 42.29563 30.63153 34063 ft 487 kts 281°
2026-05-03 23:54 42.31510 30.54382 34070 ft 488 kts 281°
2026-05-03 23:55 42.33453 30.45590 34077 ft 488 kts 281°
2026-05-03 23:55 42.35378 30.36844 34082 ft 489 kts 281°
2026-05-03 23:56 42.37309 30.28036 34095 ft 489 kts 282°
2026-05-03 23:56 42.39237 30.19205 34093 ft 490 kts 282°
2026-05-03 23:57 42.41161 30.10356 34091 ft 490 kts 282°
2026-05-03 23:57 42.43079 30.01499 34089 ft 490 kts 282°
2026-05-03 23:58 42.44980 29.92812 34107 ft 492 kts 285°
2026-05-03 23:58 42.47866 29.84346 34103 ft 499 kts 296°
2026-05-03 23:59 42.51876 29.76602 34103 ft 504 kts 304°
2026-05-03 23:59 42.56180 29.69102 34119 ft 504 kts 304°
2026-05-04 00:00 42.60434 29.61630 34120 ft 504 kts 304°
2026-05-04 00:00 42.64681 29.54055 34119 ft 504 kts 304°
2026-05-04 00:01 42.68909 29.46456 34131 ft 504 kts 304°
2026-05-04 00:01 42.73129 29.38852 34130 ft 504 kts 304°
2026-05-04 00:02 42.77348 29.31239 34123 ft 504 kts 304°
2026-05-04 00:02 42.81552 29.23633 34411 ft 507 kts 304°
2026-05-04 00:03 42.83666 29.19801 34721 ft 505 kts 304°
2026-05-04 00:03 42.85775 29.15975 35005 ft 505 kts 304°
2026-05-04 00:03 42.87882 29.12148 35278 ft 504 kts 304°
2026-05-04 00:03 42.89988 29.08316 35531 ft 504 kts 304°
2026-05-04 00:04 42.92086 29.04493 35819 ft 503 kts 304°
2026-05-04 00:04 42.94183 29.00668 36033 ft 505 kts 304°
2026-05-04 00:04 42.98346 28.93058 36141 ft 510 kts 304°
2026-05-04 00:05 43.02574 28.85311 36144 ft 507 kts 304°
2026-05-04 00:05 43.06771 28.77602 36149 ft 504 kts 304°
2026-05-04 00:06 43.10919 28.69893 36163 ft 502 kts 303°
2026-05-04 00:06 43.15046 28.62176 36169 ft 502 kts 304°
2026-05-04 00:07 43.19139 28.54506 36164 ft 503 kts 304°
2026-05-04 00:07 43.23269 28.46752 36173 ft 505 kts 304°
2026-05-04 00:08 43.27417 28.38950 36175 ft 508 kts 304°
2026-05-04 00:08 43.31589 28.31082 36185 ft 511 kts 304°
2026-05-04 00:09 43.35736 28.23242 36167 ft 508 kts 305°
2026-05-04 00:09 43.39864 28.15414 36165 ft 505 kts 305°
2026-05-04 00:10 43.43986 28.07580 36169 ft 504 kts 305°
2026-05-04 00:10 43.48070 27.99793 36173 ft 507 kts 305°
2026-05-04 00:11 43.52165 27.91963 36183 ft 509 kts 305°
2026-05-04 00:11 43.56302 27.84035 36172 ft 510 kts 306°
2026-05-04 00:12 43.60436 27.76092 36166 ft 510 kts 306°
2026-05-04 00:12 43.64567 27.68132 36192 ft 510 kts 306°
2026-05-04 00:13 43.68658 27.60226 36188 ft 507 kts 306°
2026-05-04 00:13 43.72743 27.52314 36193 ft 504 kts 306°
2026-05-04 00:14 43.76798 27.44436 36187 ft 502 kts 306°
2026-05-04 00:14 43.80834 27.36574 36207 ft 500 kts 307°
2026-05-04 00:15 43.84828 27.28775 36212 ft 499 kts 306°
2026-05-04 00:15 43.88841 27.20917 36207 ft 500 kts 306°
2026-05-04 00:16 43.92852 27.13040 36217 ft 500 kts 307°
2026-05-04 00:16 43.96865 27.05138 36225 ft 501 kts 307°
2026-05-04 00:17 44.00836 26.97299 36222 ft 502 kts 307°
2026-05-04 00:17 44.04818 26.89416 36229 ft 502 kts 307°
2026-05-04 00:18 44.08750 26.81385 36232 ft 503 kts 302°
2026-05-04 00:18 44.12073 26.72810 36241 ft 504 kts 299°
2026-05-04 00:19 44.15286 26.64133 36235 ft 504 kts 299°
2026-05-04 00:19 44.18508 26.55468 36236 ft 504 kts 299°
2026-05-04 00:20 44.21732 26.46867 36226 ft 504 kts 300°
2026-05-04 00:20 44.24981 26.38205 36244 ft 504 kts 300°
2026-05-04 00:21 44.28223 26.29535 36247 ft 504 kts 299°
2026-05-04 00:21 44.31453 26.20862 36249 ft 504 kts 300°
2026-05-04 00:22 44.34656 26.12237 36263 ft 504 kts 300°
2026-05-04 00:22 44.37874 26.03542 36266 ft 503 kts 300°
2026-05-04 00:23 44.41048 25.94941 36264 ft 504 kts 300°
2026-05-04 00:23 44.44250 25.86232 36255 ft 503 kts 300°
2026-05-04 00:24 44.47444 25.77521 36263 ft 503 kts 300°
2026-05-04 00:24 44.50612 25.68854 36258 ft 503 kts 300°
2026-05-04 00:25 44.53794 25.60118 36243 ft 503 kts 301°
2026-05-04 00:25 44.56966 25.51382 36257 ft 503 kts 301°
2026-05-04 00:26 44.60133 25.42633 36251 ft 503 kts 301°
2026-05-04 00:26 44.63292 25.33880 36252 ft 503 kts 301°
2026-05-04 00:27 44.66420 25.25181 36262 ft 502 kts 301°
2026-05-04 00:27 44.69561 25.16423 36256 ft 502 kts 301°
2026-05-04 00:28 44.72694 25.07657 36259 ft 501 kts 301°
2026-05-04 00:28 44.75289 25.00373 36237 ft 501 kts 301°
2026-05-04 00:29 44.78870 24.90289 36255 ft 500 kts 301°
2026-05-04 00:29 44.81468 24.82953 36253 ft 499 kts 301°
2026-05-04 00:30 44.84538 24.74256 36244 ft 499 kts 301°
2026-05-04 00:30 44.87625 24.65483 36247 ft 499 kts 301°
2026-05-04 00:31 44.91200 24.55289 36256 ft 499 kts 301°
2026-05-04 00:31 44.94271 24.46501 36256 ft 499 kts 301°
2026-05-04 00:32 44.96818 24.39188 36258 ft 500 kts 301°
2026-05-04 00:32 44.99875 24.30385 36244 ft 499 kts 302°
2026-05-04 00:33 45.04442 24.17181 36245 ft 499 kts 302°
2026-05-04 00:34 45.07461 24.08418 36247 ft 499 kts 302°
2026-05-04 00:34 45.10462 23.99676 36238 ft 498 kts 302°
2026-05-04 00:35 45.13482 23.90854 36238 ft 498 kts 302°
2026-05-04 00:35 45.16982 23.80589 36242 ft 497 kts 302°
2026-05-04 00:36 45.19980 23.71766 36211 ft 496 kts 302°
2026-05-04 00:36 45.22460 23.64439 36227 ft 495 kts 302°
2026-05-04 00:37 45.25432 23.55638 36243 ft 494 kts 302°
2026-05-04 00:37 45.28392 23.46846 36249 ft 493 kts 302°
2026-05-04 00:38 45.31340 23.38061 36246 ft 493 kts 301°
2026-05-04 00:38 45.34265 23.29316 36243 ft 494 kts 301°
2026-05-04 00:39 45.37208 23.20487 36230 ft 494 kts 301°
2026-05-04 00:39 45.40145 23.11645 36250 ft 495 kts 301°
2026-05-04 00:40 45.43072 23.02798 36233 ft 493 kts 301°
2026-05-04 00:40 45.45935 22.94118 36235 ft 493 kts 301°
2026-05-04 00:41 45.48841 22.85283 36240 ft 492 kts 301°
2026-05-04 00:41 45.51736 22.76447 36247 ft 491 kts 301°
2026-05-04 00:42 45.54613 22.67638 36230 ft 489 kts 301°
2026-05-04 00:42 45.57454 22.58908 36235 ft 488 kts 301°
2026-05-04 00:43 45.60302 22.50131 36238 ft 487 kts 300°
2026-05-04 00:43 45.63141 22.41354 36205 ft 486 kts 300°
2026-05-04 00:44 45.65966 22.32580 36233 ft 486 kts 300°
2026-05-04 00:44 45.68788 22.23799 36238 ft 486 kts 300°
2026-05-04 00:45 45.71584 22.15066 36234 ft 486 kts 300°
2026-05-04 00:45 45.74392 22.06262 36224 ft 486 kts 300°
2026-05-04 00:46 45.77160 21.97554 36237 ft 486 kts 300°
2026-05-04 00:46 45.79953 21.88735 36245 ft 486 kts 300°
2026-05-04 00:47 45.82722 21.79968 36245 ft 486 kts 300°
2026-05-04 00:47 45.85500 21.71138 36240 ft 485 kts 299°
2026-05-04 00:48 45.88270 21.62303 36250 ft 485 kts 299°
2026-05-04 00:48 45.91032 21.53464 36261 ft 485 kts 299°
2026-05-04 00:49 45.93788 21.44613 36264 ft 485 kts 299°
2026-05-04 00:49 45.96516 21.35820 36258 ft 484 kts 299°
2026-05-04 00:50 45.99251 21.26975 36262 ft 484 kts 299°
2026-05-04 00:50 46.01975 21.18137 36254 ft 484 kts 298°
2026-05-04 00:51 46.04694 21.09284 36262 ft 484 kts 298°
2026-05-04 00:51 46.07386 21.00486 36248 ft 483 kts 298°
2026-05-04 00:52 46.10056 20.91730 36255 ft 483 kts 298°
2026-05-04 00:52 46.12749 20.82866 36249 ft 483 kts 298°
2026-05-04 00:53 46.15436 20.73996 36242 ft 483 kts 298°
2026-05-04 00:53 46.18025 20.65130 36229 ft 484 kts 296°
2026-05-04 00:54 46.20433 20.56060 36235 ft 484 kts 295°
2026-05-04 00:54 46.22826 20.46975 36228 ft 484 kts 295°
2026-05-04 00:55 46.25245 20.37894 36228 ft 484 kts 296°
2026-05-04 00:55 46.27653 20.28868 36226 ft 484 kts 295°
2026-05-04 00:56 46.30067 20.19779 36225 ft 485 kts 295°
2026-05-04 00:56 46.32476 20.10671 36227 ft 485 kts 295°
2026-05-04 00:57 46.34876 20.01563 36224 ft 485 kts 295°
2026-05-04 00:57 46.37232 19.92586 36222 ft 485 kts 295°
2026-05-04 00:58 46.39619 19.83449 36223 ft 485 kts 295°
2026-05-04 00:58 46.41998 19.74311 36221 ft 485 kts 295°
2026-05-04 00:59 46.44371 19.65159 36191 ft 485 kts 295°
2026-05-04 00:59 46.46717 19.56073 36211 ft 484 kts 295°
2026-05-04 01:00 46.49067 19.46940 36214 ft 483 kts 295°
2026-05-04 01:00 46.51410 19.37800 36215 ft 483 kts 295°
2026-05-04 01:01 46.53741 19.28665 36191 ft 482 kts 294°
2026-05-04 01:01 46.56046 19.19598 36205 ft 481 kts 294°
2026-05-04 01:02 46.58353 19.10484 36209 ft 480 kts 294°
2026-05-04 01:02 46.60653 19.01364 36209 ft 480 kts 294°
2026-05-04 01:03 46.62923 18.92330 36187 ft 480 kts 294°
2026-05-04 01:03 46.65204 18.83211 36202 ft 479 kts 294°
2026-05-04 01:04 46.67458 18.74166 36206 ft 478 kts 293°
2026-05-04 01:04 46.69719 18.65054 36207 ft 479 kts 293°
2026-05-04 01:05 46.71974 18.55936 36189 ft 478 kts 293°
2026-05-04 01:05 46.74219 18.46816 36203 ft 478 kts 293°
2026-05-04 01:06 46.76439 18.37756 36196 ft 477 kts 292°
2026-05-04 01:06 46.78365 18.28474 36211 ft 479 kts 289°
2026-05-04 01:07 46.80150 18.19115 36186 ft 479 kts 288°
2026-05-04 01:07 46.81932 18.09759 36195 ft 478 kts 289°
2026-05-04 01:08 46.83712 18.00489 36192 ft 477 kts 289°
2026-05-04 01:08 46.85489 17.91242 36196 ft 477 kts 289°
2026-05-04 01:09 46.87273 17.81913 36166 ft 477 kts 288°
2026-05-04 01:09 46.89047 17.72590 36182 ft 476 kts 288°
2026-05-04 01:10 46.90799 17.63329 36188 ft 475 kts 288°
2026-05-04 01:10 46.92555 17.54006 36192 ft 476 kts 288°
2026-05-04 01:11 46.94305 17.44664 36186 ft 476 kts 288°
2026-05-04 01:11 46.96048 17.35319 36179 ft 476 kts 288°
2026-05-04 01:12 46.97780 17.25979 36176 ft 475 kts 288°
2026-05-04 01:12 46.99493 17.16694 36177 ft 475 kts 288°
2026-05-04 01:13 47.01207 17.07359 36168 ft 475 kts 288°
2026-05-04 01:13 47.02900 16.98095 36163 ft 475 kts 287°
2026-05-04 01:14 47.04589 16.88806 36161 ft 475 kts 287°
2026-05-04 01:14 47.06280 16.79453 36160 ft 475 kts 287°
2026-05-04 01:15 47.07963 16.70097 36161 ft 474 kts 287°
2026-05-04 01:15 47.09639 16.60731 36148 ft 474 kts 287°
2026-05-04 01:16 47.11294 16.51439 36156 ft 474 kts 287°
2026-05-04 01:16 47.12954 16.42075 36156 ft 474 kts 287°
2026-05-04 01:17 47.14510 16.32668 36151 ft 475 kts 282°
2026-05-04 01:17 47.15580 16.23098 36155 ft 475 kts 281°
2026-05-04 01:18 47.16582 16.13556 36155 ft 475 kts 281°
2026-05-04 01:18 47.17600 16.03957 36151 ft 476 kts 281°
2026-05-04 01:19 47.18619 15.94434 36156 ft 476 kts 281°
2026-05-04 01:19 47.19647 15.84821 36130 ft 476 kts 281°
2026-05-04 01:20 47.20666 15.75206 36145 ft 476 kts 281°
2026-05-04 01:20 47.21670 15.65649 36140 ft 476 kts 281°
2026-05-04 01:21 47.22672 15.56028 36152 ft 476 kts 281°
2026-05-04 01:21 47.23664 15.46413 36134 ft 475 kts 281°
2026-05-04 01:22 47.24648 15.36798 36134 ft 475 kts 281°
2026-05-04 01:22 47.25618 15.27240 36136 ft 475 kts 281°
2026-05-04 01:23 47.26587 15.17608 36132 ft 476 kts 281°
2026-05-04 01:23 47.27549 15.07970 36143 ft 476 kts 281°
2026-05-04 01:24 47.28493 14.98417 36142 ft 476 kts 281°
2026-05-04 01:24 47.29432 14.88837 36155 ft 476 kts 281°
2026-05-04 01:25 47.30370 14.79193 36158 ft 476 kts 281°
2026-05-04 01:25 47.31297 14.69553 36154 ft 475 kts 281°
2026-05-04 01:26 47.32217 14.59911 36141 ft 474 kts 280°
2026-05-04 01:26 47.33121 14.50352 36133 ft 474 kts 280°
2026-05-04 01:27 47.34021 14.40734 36125 ft 474 kts 280°
2026-05-04 01:27 47.34914 14.31111 36112 ft 474 kts 280°
2026-05-04 01:28 47.35800 14.21490 36095 ft 473 kts 279°
2026-05-04 01:28 47.36669 14.11935 36101 ft 474 kts 279°
2026-05-04 01:29 47.37537 14.02309 36108 ft 473 kts 279°
2026-05-04 01:29 47.38389 13.92779 36104 ft 473 kts 279°
2026-05-04 01:30 47.39239 13.83166 36091 ft 472 kts 279°
2026-05-04 01:30 47.40075 13.73625 36088 ft 472 kts 278°
2026-05-04 01:31 47.40908 13.64031 36076 ft 471 kts 278°
2026-05-04 01:31 47.41730 13.54459 36082 ft 469 kts 278°
2026-05-04 01:32 47.42541 13.44905 36086 ft 469 kts 278°
2026-05-04 01:32 47.43347 13.35342 36074 ft 469 kts 277°
2026-05-04 01:33 47.44138 13.25857 36069 ft 468 kts 277°
2026-05-04 01:33 47.44924 13.16313 36068 ft 468 kts 277°
2026-05-04 01:34 47.45703 13.06775 36063 ft 467 kts 277°
2026-05-04 01:34 47.46465 12.97333 36064 ft 467 kts 277°
2026-05-04 01:35 47.47227 12.87799 36059 ft 467 kts 277°
2026-05-04 01:35 47.47976 12.78332 36061 ft 467 kts 277°
2026-05-04 01:36 47.48722 12.68802 36060 ft 467 kts 277°
2026-05-04 01:36 47.49460 12.59266 36060 ft 467 kts 277°
2026-05-04 01:37 47.50189 12.49739 36058 ft 466 kts 276°
2026-05-04 01:37 47.50904 12.40282 36057 ft 465 kts 276°
2026-05-04 01:38 47.51616 12.30776 36056 ft 465 kts 276°
2026-05-04 01:38 47.52319 12.21277 36057 ft 464 kts 276°
2026-05-04 01:39 47.53014 12.11780 36060 ft 464 kts 276°
2026-05-04 01:39 47.53700 12.02345 36049 ft 464 kts 277°
2026-05-04 01:40 47.54832 11.93053 36061 ft 463 kts 282°
2026-05-04 01:40 47.56180 11.83716 36054 ft 464 kts 282°
2026-05-04 01:41 47.57505 11.74351 36052 ft 464 kts 281°
2026-05-04 01:41 47.58788 11.65059 36045 ft 463 kts 281°
2026-05-04 01:42 47.60067 11.55708 36048 ft 463 kts 281°
2026-05-04 01:42 47.61339 11.46369 36049 ft 462 kts 281°
2026-05-04 01:43 47.62589 11.37045 36051 ft 461 kts 280°
2026-05-04 01:43 47.63735 11.27690 36058 ft 460 kts 279°
2026-05-04 01:44 47.64842 11.18402 36052 ft 460 kts 279°
2026-05-04 01:44 47.65959 11.09055 36056 ft 460 kts 279°
2026-05-04 01:45 47.67069 10.99775 36060 ft 460 kts 279°
2026-05-04 01:45 47.68725 10.85821 36059 ft 461 kts 279°
2026-05-04 01:46 47.69825 10.76457 36061 ft 460 kts 279°
2026-05-04 01:46 47.70917 10.67101 36064 ft 460 kts 279°
2026-05-04 01:47 47.72001 10.57734 36066 ft 460 kts 279°
2026-05-04 01:47 47.73078 10.48365 36073 ft 460 kts 278°
2026-05-04 01:48 47.74138 10.39069 36073 ft 459 kts 278°
2026-05-04 01:48 47.74561 10.29639 36069 ft 457 kts 267°
2026-05-04 01:49 47.74295 10.20205 36081 ft 457 kts 267°
2026-05-04 01:49 47.74038 10.10770 36081 ft 457 kts 267°
2026-05-04 01:50 47.73812 10.01395 36070 ft 457 kts 267°
2026-05-04 01:50 47.73577 9.92055 36077 ft 457 kts 266°
2026-05-04 01:51 47.73328 9.82620 36074 ft 457 kts 266°
2026-05-04 01:51 47.73074 9.73177 36078 ft 457 kts 266°
2026-05-04 01:52 47.72594 9.63837 36074 ft 456 kts 259°
2026-05-04 01:52 47.71450 9.54582 36078 ft 456 kts 258°
2026-05-04 01:53 47.70271 9.45327 36078 ft 456 kts 258°
2026-05-04 01:53 47.69108 9.36070 36078 ft 456 kts 258°
2026-05-04 01:54 47.67950 9.26808 36092 ft 457 kts 258°
2026-05-04 01:54 47.66795 9.17604 36088 ft 457 kts 258°
2026-05-04 01:55 47.65625 9.08336 36076 ft 457 kts 258°
2026-05-04 01:55 47.64460 8.99174 36081 ft 457 kts 258°
2026-05-04 01:56 47.63275 8.89921 36072 ft 457 kts 258°
2026-05-04 01:56 47.62091 8.80749 36096 ft 456 kts 257°
2026-05-04 01:57 47.60893 8.71518 36082 ft 455 kts 257°
2026-05-04 01:57 47.59691 8.62316 36076 ft 455 kts 257°
2026-05-04 01:58 47.58482 8.53127 36075 ft 454 kts 257°
2026-05-04 01:58 47.57277 8.44030 36067 ft 453 kts 257°
2026-05-04 01:59 47.56057 8.34874 36077 ft 453 kts 257°
2026-05-04 01:59 47.54831 8.25730 36065 ft 453 kts 257°
2026-05-04 02:00 47.53598 8.16599 36071 ft 452 kts 257°
2026-05-04 02:00 47.52369 8.07542 36065 ft 452 kts 257°
2026-05-04 02:01 47.51135 7.98512 36051 ft 452 kts 257°
2026-05-04 02:01 47.49881 7.89394 36053 ft 452 kts 256°
2026-05-04 02:02 47.48622 7.80288 36045 ft 452 kts 256°
2026-05-04 02:02 47.47364 7.71247 36043 ft 452 kts 256°
2026-05-04 02:03 47.46349 7.62071 36056 ft 454 kts 262°
2026-05-04 02:03 47.45760 7.52782 36065 ft 454 kts 262°
2026-05-04 02:04 47.45171 7.43482 36035 ft 455 kts 262°
2026-05-04 02:04 47.44559 7.34249 36042 ft 455 kts 262°
2026-05-04 02:05 47.43925 7.24950 36045 ft 455 kts 262°
2026-05-04 02:05 47.43281 7.15635 36066 ft 456 kts 262°
2026-05-04 02:06 47.42630 7.06315 36076 ft 456 kts 262°
2026-05-04 02:06 47.41980 6.97097 36076 ft 456 kts 261°
2026-05-04 02:07 47.41320 6.87863 36076 ft 455 kts 261°
2026-05-04 02:07 47.40650 6.78583 36075 ft 454 kts 261°
2026-05-04 02:08 47.39974 6.69321 36073 ft 453 kts 261°
2026-05-04 02:08 47.39290 6.60085 36079 ft 452 kts 261°
2026-05-04 02:09 47.38600 6.50936 36069 ft 451 kts 261°
2026-05-04 02:09 47.37901 6.41749 36060 ft 450 kts 261°
2026-05-04 02:10 47.37197 6.32591 36064 ft 449 kts 261°
2026-05-04 02:10 47.36489 6.23454 36094 ft 448 kts 261°
2026-05-04 02:11 47.35778 6.14381 36069 ft 448 kts 261°
2026-05-04 02:11 47.35056 6.05259 36065 ft 448 kts 260°
2026-05-04 02:12 47.34314 5.96247 36069 ft 447 kts 260°
2026-05-04 02:12 47.33537 5.87149 36065 ft 447 kts 260°
2026-05-04 02:13 47.32780 5.78112 36085 ft 447 kts 260°
2026-05-04 02:13 47.32054 5.69001 36070 ft 447 kts 260°
2026-05-04 02:14 47.31323 5.59898 36070 ft 447 kts 260°
2026-05-04 02:14 47.30580 5.50805 36055 ft 447 kts 260°
2026-05-04 02:15 47.30168 5.41751 36046 ft 451 kts 275°
2026-05-04 02:15 47.31010 5.37288 35945 ft 456 kts 289°
2026-05-04 02:15 47.32606 5.33249 35597 ft 458 kts 301°
2026-05-04 02:16 47.34729 5.29712 34848 ft 468 kts 314°
2026-05-04 02:16 47.37462 5.26986 33822 ft 482 kts 326°
2026-05-04 02:16 47.40452 5.24636 32609 ft 492 kts 328°
2026-05-04 02:16 47.43523 5.22307 31440 ft 500 kts 328°
2026-05-04 02:17 47.46624 5.19914 30465 ft 503 kts 327°
2026-05-04 02:17 47.49693 5.17470 29750 ft 499 kts 327°
2026-05-04 02:17 47.52674 5.15038 29164 ft 492 kts 326°
2026-05-04 02:17 47.55642 5.12594 28599 ft 485 kts 326°
2026-05-04 02:18 47.58574 5.10165 28028 ft 479 kts 325°
2026-05-04 02:18 47.61296 5.07425 27353 ft 469 kts 317°
2026-05-04 02:18 47.63760 5.04293 26707 ft 464 kts 313°
2026-05-04 02:18 47.66122 5.01071 26112 ft 461 kts 313°
2026-05-04 02:19 47.68448 4.97942 25547 ft 458 kts 314°
2026-05-04 02:19 47.70845 4.94848 24994 ft 456 kts 315°
2026-05-04 02:19 47.73221 4.91851 24437 ft 453 kts 315°
2026-05-04 02:19 47.75621 4.88839 23922 ft 449 kts 315°
2026-05-04 02:20 47.77993 4.85847 23353 ft 446 kts 315°
2026-05-04 02:20 47.80347 4.82865 22792 ft 443 kts 315°
2026-05-04 02:20 47.82679 4.79904 22240 ft 439 kts 315°
2026-05-04 02:20 47.84988 4.76966 21705 ft 435 kts 315°
2026-05-04 02:21 47.87279 4.74050 21153 ft 431 kts 315°
2026-05-04 02:21 47.89548 4.71155 20612 ft 428 kts 315°
2026-05-04 02:21 47.91800 4.68281 20090 ft 425 kts 315°
2026-05-04 02:21 47.94005 4.65463 19592 ft 422 kts 315°
2026-05-04 02:22 47.96237 4.62606 18967 ft 423 kts 315°
2026-05-04 02:22 47.98464 4.59753 18438 ft 421 kts 315°
2026-05-04 02:22 48.00669 4.56925 17958 ft 416 kts 315°
2026-05-04 02:22 48.02854 4.54122 17484 ft 412 kts 315°
2026-05-04 02:23 48.05017 4.51343 17008 ft 408 kts 315°
2026-05-04 02:23 48.07156 4.48590 16515 ft 405 kts 315°
2026-05-04 02:23 48.09281 4.45853 16041 ft 401 kts 315°
2026-05-04 02:23 48.11358 4.43175 15578 ft 398 kts 315°
2026-05-04 02:24 48.13447 4.40477 15143 ft 395 kts 315°
2026-05-04 02:24 48.15515 4.37803 14693 ft 392 kts 314°
2026-05-04 02:24 48.17572 4.35140 14238 ft 390 kts 314°
2026-05-04 02:24 48.19612 4.32497 13812 ft 386 kts 314°
2026-05-04 02:25 48.21638 4.29870 13352 ft 383 kts 314°
2026-05-04 02:25 48.23644 4.27266 12856 ft 381 kts 315°
2026-05-04 02:25 48.25642 4.24669 12416 ft 378 kts 314°
2026-05-04 02:25 48.27501 4.21946 11957 ft 371 kts 307°
2026-05-04 02:26 48.29096 4.19002 11531 ft 366 kts 303°
2026-05-04 02:26 48.30643 4.15988 11117 ft 363 kts 303°
2026-05-04 02:26 48.32210 4.13024 10698 ft 361 kts 304°
2026-05-04 02:26 48.33792 4.10109 10284 ft 359 kts 305°
2026-05-04 02:27 48.35370 4.07227 9880 ft 356 kts 305°
2026-05-04 02:27 48.36942 4.04358 9451 ft 354 kts 305°
2026-05-04 02:27 48.38498 4.01517 9006 ft 351 kts 305°
2026-05-04 02:27 48.40012 3.98747 8597 ft 349 kts 305°
2026-05-04 02:28 48.41528 3.95970 8154 ft 347 kts 305°
2026-05-04 02:28 48.43053 3.93170 7700 ft 346 kts 305°
2026-05-04 02:28 48.44573 3.90376 7308 ft 343 kts 305°
2026-05-04 02:28 48.46081 3.87602 7039 ft 344 kts 305°
2026-05-04 02:29 48.47603 3.84795 7036 ft 347 kts 305°
2026-05-04 02:29 48.49129 3.81985 7034 ft 345 kts 305°
2026-05-04 02:29 48.50644 3.79195 7013 ft 342 kts 305°
2026-05-04 02:29 48.52144 3.76425 7014 ft 341 kts 305°
2026-05-04 02:30 48.53629 3.73680 7008 ft 342 kts 304°
2026-05-04 02:30 48.55042 3.70807 6999 ft 340 kts 299°
2026-05-04 02:30 48.56301 3.67798 7005 ft 339 kts 297°
2026-05-04 02:30 48.57546 3.64776 7011 ft 339 kts 298°
2026-05-04 02:31 48.58815 3.61764 7002 ft 340 kts 298°
2026-05-04 02:31 48.60098 3.58759 7015 ft 340 kts 298°
2026-05-04 02:31 48.61567 3.55980 6998 ft 343 kts 315°
2026-05-04 02:31 48.63592 3.54041 7011 ft 349 kts 328°
2026-05-04 02:32 48.65747 3.52258 7013 ft 356 kts 327°
2026-05-04 02:32 48.67914 3.50421 7012 ft 356 kts 327°
2026-05-04 02:32 48.70035 3.48602 7002 ft 354 kts 326°
2026-05-04 02:32 48.72170 3.46754 6992 ft 352 kts 327°
2026-05-04 02:33 48.74283 3.44917 6986 ft 349 kts 326°
2026-05-04 02:33 48.76383 3.43085 6971 ft 347 kts 326°
2026-05-04 02:33 48.78471 3.41260 6989 ft 346 kts 326°
2026-05-04 02:33 48.80564 3.39428 6990 ft 349 kts 326°
2026-05-04 02:34 48.82673 3.37581 6998 ft 351 kts 326°
2026-05-04 02:34 48.84794 3.35723 7003 ft 353 kts 326°
2026-05-04 02:34 48.86915 3.33865 6992 ft 351 kts 326°
2026-05-04 02:34 48.89031 3.32011 6979 ft 350 kts 326°
2026-05-04 02:35 48.91108 3.30186 6981 ft 349 kts 326°
2026-05-04 02:35 48.93201 3.28329 6974 ft 344 kts 323°
2026-05-04 02:35 48.94949 3.25897 6729 ft 343 kts 301°
2026-05-04 02:35 48.95941 3.22734 6644 ft 317 kts 284°
2026-05-04 02:36 48.96559 3.19695 6417 ft 286 kts 282°
2026-05-04 02:36 48.97102 3.16929 6149 ft 262 kts 282°
2026-05-04 02:36 48.97615 3.14289 5885 ft 258 kts 282°
2026-05-04 02:36 48.98121 3.11693 5678 ft 253 kts 282°
2026-05-04 02:37 48.98622 3.09151 5454 ft 249 kts 282°
2026-05-04 02:37 48.99111 3.06691 5283 ft 243 kts 283°
2026-05-04 02:37 48.99597 3.04259 5087 ft 237 kts 283°
2026-05-04 02:37 49.00072 3.01895 4919 ft 230 kts 283°
2026-05-04 02:38 49.00521 2.99653 4737 ft 223 kts 283°
2026-05-04 02:38 49.00966 2.97440 4565 ft 214 kts 283°
2026-05-04 02:38 49.01333 2.95317 4378 ft 198 kts 269°
2026-05-04 02:38 49.01234 2.93287 4307 ft 196 kts 262°
2026-05-04 02:39 49.01136 2.91194 4132 ft 197 kts 263°
2026-05-04 02:39 49.01046 2.89137 3965 ft 193 kts 263°
2026-05-04 02:39 49.00944 2.87137 3724 ft 190 kts 262°
2026-05-04 02:39 49.00839 2.85172 3563 ft 182 kts 262°
2026-05-04 02:40 49.00739 2.83303 3312 ft 172 kts 262°
2026-05-04 02:40 49.00647 2.81580 3089 ft 154 kts 261°
2026-05-04 02:40 49.00560 2.79972 2867 ft 151 kts 261°
2026-05-04 02:40 49.00472 2.78384 2661 ft 150 kts 261°
2026-05-04 02:41 49.00386 2.76796 2470 ft 151 kts 261°
2026-05-04 02:41 49.00299 2.75189 2260 ft 153 kts 261°
2026-05-04 02:41 49.00213 2.73604 2058 ft 152 kts 261°
2026-05-04 02:41 49.00128 2.71998 1873 ft 153 kts 260°
2026-05-04 02:42 49.00029 2.70366 1673 ft 156 kts 260°
2026-05-04 02:42 48.99925 2.68749 1422 ft 152 kts 261°
2026-05-04 02:42 48.99827 2.67147 1157 ft 151 kts 262°
2026-05-04 02:42 48.99749 2.65550 1040 ft 149 kts 262°
2026-05-04 02:43 48.99675 2.63937 849 ft 157 kts 262°
2026-05-04 02:43 48.99591 2.62284 674 ft 154 kts 262°
2026-05-04 02:43 48.99521 2.60661 461 ft 154 kts 260°
2026-05-04 02:43 48.99430 2.59077 371 ft 145 kts 259°
2026-05-04 02:44 48.99334 2.57698 363 ft 114 kts 264°
2026-05-04 02:44 48.99300 2.57013 362 ft 26 kts 266°
2026-05-04 02:44 48.99319 2.56793 364 ft 15 kts 295°
2026-05-04 02:44 48.99389 2.56684 366 ft 15 kts 336°
2026-05-04 02:45 48.99488 2.56641 365 ft 15 kts 353°
2026-05-04 02:45 48.99593 2.56631 359 ft 15 kts 356°
2026-05-04 02:45 48.99699 2.56611 363 ft 16 kts 353°
2026-05-04 02:45 48.99810 2.56595 364 ft 16 kts 357°
2026-05-04 02:46 48.99884 2.56590 361 ft 16 kts 357°
2026-05-04 02:46 49.00000 2.56575 366 ft 5 kts 355°
2026-05-04 02:46 49.00033 2.56572 364 ft 5 kts 358°
2026-05-04 02:46 49.00066 2.56556 366 ft 6 kts 314°
2026-05-04 02:47 49.00092 2.56508 366 ft 6 kts 323°
2026-05-04 02:47 49.00132 2.56478 366 ft 7 kts 339°
2026-05-04 02:47 49.00169 2.56455 367 ft 2 kts 339°
2026-05-04 02:47 49.00183 2.56447 359 ft 2 kts 339°
2026-05-04 02:48 49.00189 2.56444 359 ft 0 kts 339°